Time;durP1;ratioP1;P1;durP2;ratioP2;P2;SDS_P1;SDS_P2;PMS_P1;PMS_P2;Temp;Humidity;BMP_temperature;BMP_pressure;BME280_temperature;BME280_humidity;BME280_pressure;Samples;Min_cycle;Max_cycle;Signal;HPM_P1;HPM_P2
2022/03/17 00:01:16;;;;;;;64.28;41.03;;;9.40;99.90;;;;;;5014876;28;20128;-65
2022/03/17 00:03:41;;;;;;;71.50;41.65;;;9.40;99.90;;;;;;5015160;28;20037;-65
2022/03/17 00:06:07;;;;;;;75.03;44.17;;;9.40;99.90;;;;;;5011600;28;20811;-65
2022/03/17 00:08:32;;;;;;;72.97;41.45;;;9.40;99.90;;;;;;5011058;28;20037;-65
2022/03/17 00:10:58;;;;;;;71.57;40.78;;;9.40;99.90;;;;;;5012134;28;20046;-66
2022/03/17 00:13:24;;;;;;;68.07;40.05;;;9.40;99.90;;;;;;5011345;28;20049;-66
2022/03/17 00:15:49;;;;;;;67.90;41.17;;;9.40;99.90;;;;;;5015937;28;20050;-66
2022/03/17 00:18:16;;;;;;;69.40;41.72;;;9.40;99.90;;;;;;5018345;28;20125;-66
2022/03/17 00:20:42;;;;;;;78.25;43.60;;;9.40;99.90;;;;;;5011582;28;20050;-66
2022/03/17 00:23:07;;;;;;;80.90;44.55;;;9.40;99.90;;;;;;5002860;28;20092;-66
2022/03/17 00:25:34;;;;;;;73.70;42.75;;;9.40;99.90;;;;;;5011400;28;20088;-66
2022/03/17 00:28:00;;;;;;;67.47;42.55;;;9.40;99.90;;;;;;5005452;28;20507;-66
2022/03/17 00:30:26;;;;;;;65.22;40.15;;;9.40;99.90;;;;;;5013945;28;20048;-66
2022/03/17 00:32:52;;;;;;;74.32;43.17;;;9.50;99.90;;;;;;5006148;28;20068;-66
2022/03/17 00:35:36;;;;;;;69.93;41.22;;;9.50;99.90;;;;;;5010975;28;20058;-66
2022/03/17 00:38:08;;;;;;;69.00;39.85;;;9.50;99.90;;;;;;5007805;28;20180;-66
2022/03/17 00:40:38;;;;;;;71.25;42.97;;;9.50;99.90;;;;;;5007037;28;20050;-66
2022/03/17 00:43:09;;;;;;;70.50;43.05;;;9.50;99.90;;;;;;5002860;28;20042;-65
2022/03/17 00:45:35;;;;;;;75.03;42.13;;;9.50;99.90;;;;;;5011238;28;20050;-66
2022/03/17 00:48:02;;;;;;;75.00;44.10;;;9.50;99.90;;;;;;5008501;28;20505;-66
2022/03/17 00:50:28;;;;;;;70.63;41.30;;;9.50;99.90;;;;;;5010570;28;20418;-66
2022/03/17 00:52:54;;;;;;;68.95;41.83;;;9.50;99.90;;;;;;5009877;28;20476;-66
2022/03/17 00:55:21;;;;;;;79.55;43.83;;;9.50;99.90;;;;;;5017007;28;20046;-66
2022/03/17 00:57:47;;;;;;;71.22;42.08;;;9.50;99.90;;;;;;5010854;28;20088;-66
2022/03/17 01:00:14;;;;;;;64.38;39.28;;;9.50;99.90;;;;;;5008257;28;20077;-66
2022/03/17 01:02:44;;;;;;;73.68;42.83;;;9.50;99.90;;;;;;5006776;28;20068;-66
2022/03/17 01:05:10;;;;;;;82.78;47.20;;;9.50;99.90;;;;;;5010435;28;20038;-66
2022/03/17 01:07:37;;;;;;;80.15;42.78;;;9.50;99.90;;;;;;5002818;28;20134;-66
2022/03/17 01:10:04;;;;;;;70.57;40.78;;;9.50;99.90;;;;;;5009917;28;20045;-66
2022/03/17 01:12:30;;;;;;;74.00;43.58;;;9.50;99.90;;;;;;5011190;28;20044;-66
2022/03/17 01:14:56;;;;;;;75.18;42.58;;;9.50;99.90;;;;;;5008803;28;20038;-66
2022/03/17 01:17:21;;;;;;;71.90;43.53;;;9.50;99.90;;;;;;5006975;28;20046;-66
2022/03/17 01:19:47;;;;;;;75.47;42.63;;;9.40;99.90;;;;;;5003951;28;20414;-66
2022/03/17 01:22:13;;;;;;;71.07;41.65;;;9.40;99.90;;;;;;5010859;28;20477;-66
2022/03/17 01:24:39;;;;;;;66.13;43.22;;;9.40;99.90;;;;;;5011051;28;20042;-66
2022/03/17 01:27:04;;;;;;;75.22;40.95;;;9.50;99.90;;;;;;5011131;28;20115;-66
2022/03/17 01:29:30;;;;;;;77.47;46.15;;;9.40;99.90;;;;;;5007355;28;20041;-66
2022/03/17 01:31:56;;;;;;;76.95;43.22;;;9.40;99.90;;;;;;5010055;28;20160;-65
2022/03/17 01:34:21;;;;;;;82.90;45.00;;;9.40;99.90;;;;;;5017451;28;20402;-66
2022/03/17 01:36:47;;;;;;;69.13;44.63;;;9.40;99.90;;;;;;5011368;28;20683;-66
2022/03/17 01:39:13;;;;;;;70.63;42.25;;;9.40;99.90;;;;;;5012157;28;20041;-66
2022/03/17 01:41:39;;;;;;;76.88;43.00;;;9.40;99.90;;;;;;5014076;28;20541;-66
2022/03/17 01:44:06;;;;;;;72.30;42.58;;;9.40;99.90;;;;;;5015340;28;20072;-66
2022/03/17 01:47:26;;;;;;;80.40;43.25;;;9.40;99.90;;;;;;5014146;28;20062;-66
2022/03/17 01:49:17;;;;;;;73.03;45.55;;;9.40;99.90;;;;;;5004327;28;20112;-66
2022/03/17 01:51:45;;;;;;;79.05;47.13;;;9.40;99.90;;;;;;5009998;28;20045;-65
2022/03/17 01:54:11;;;;;;;74.85;44.53;;;9.40;99.90;;;;;;5016343;28;20137;-65
2022/03/17 01:56:37;;;;;;;66.30;41.65;;;9.30;99.90;;;;;;5003259;28;20048;-66
2022/03/17 01:59:03;;;;;;;73.00;44.53;;;9.30;99.90;;;;;;5011165;28;20034;-67
2022/03/17 02:01:29;;;;;;;75.68;44.42;;;9.30;99.90;;;;;;4999648;28;20128;-67
2022/03/17 02:03:56;;;;;;;74.57;42.22;;;9.40;99.90;;;;;;5005020;28;20077;-66
2022/03/17 02:06:23;;;;;;;85.72;43.17;;;9.30;99.90;;;;;;5002724;28;20093;-67
2022/03/17 02:08:49;;;;;;;78.38;44.47;;;9.40;99.90;;;;;;5002167;28;20034;-67
2022/03/17 02:13:59;;;;;;;71.70;44.42;;;9.30;99.90;;;;;;5008811;28;20125;-67
2022/03/17 02:16:27;;;;;;;74.07;45.30;;;9.30;99.90;;;;;;5008607;28;20519;-66
2022/03/17 02:18:53;;;;;;;77.88;42.97;;;9.40;99.90;;;;;;5012145;28;20125;-66
2022/03/17 02:21:19;;;;;;;72.85;44.60;;;9.40;99.90;;;;;;5006790;28;20149;-66
2022/03/17 02:26:30;;;;;;;87.05;45.75;;;9.40;99.90;;;;;;5007061;28;20050;-66
2022/03/17 02:28:58;;;;;;;74.68;46.28;;;9.30;99.90;;;;;;5008744;28;20042;-66
2022/03/17 02:31:25;;;;;;;74.00;45.53;;;9.30;99.90;;;;;;5012240;28;20084;-66
2022/03/17 02:33:52;;;;;;;76.78;45.97;;;9.30;99.90;;;;;;5010372;28;20038;-66
2022/03/17 02:36:18;;;;;;;72.95;43.65;;;9.30;99.90;;;;;;5003751;28;20058;-66
2022/03/17 02:38:44;;;;;;;76.95;43.88;;;9.30;99.90;;;;;;4991812;28;20070;-66
2022/03/17 02:41:21;;;;;;;79.18;45.78;;;9.30;99.90;;;;;;5008375;28;20057;-66
2022/03/17 02:43:51;;;;;;;75.32;45.90;;;9.20;99.90;;;;;;5010764;28;20080;-66
2022/03/17 02:46:17;;;;;;;82.50;47.03;;;9.20;99.90;;;;;;5005909;28;20719;-66
2022/03/17 02:48:43;;;;;;;74.05;42.42;;;9.20;99.90;;;;;;4992203;28;20081;-66
2022/03/17 02:51:09;;;;;;;83.97;45.28;;;9.30;99.90;;;;;;5009901;28;20061;-66
2022/03/17 02:53:35;;;;;;;72.05;45.13;;;9.30;99.90;;;;;;5011168;28;20538;-66
2022/03/17 02:56:02;;;;;;;73.90;44.80;;;9.30;99.90;;;;;;5006771;28;20113;-66
2022/03/17 02:58:28;;;;;;;75.20;44.60;;;9.30;99.90;;;;;;5004513;28;20050;-66
2022/03/17 03:00:53;;;;;;;73.03;41.03;;;9.30;99.90;;;;;;5001446;28;20048;-66
2022/03/17 03:03:19;;;;;;;66.65;42.40;;;9.40;99.90;;;;;;5008933;28;20407;-66
2022/03/17 03:05:45;;;;;;;72.07;40.20;;;9.60;99.90;;;;;;5008961;28;20484;-66
2022/03/17 03:08:11;;;;;;;66.72;41.60;;;9.70;99.90;;;;;;5006450;28;20497;-66
2022/03/17 03:10:36;;;;;;;70.10;42.63;;;9.70;99.90;;;;;;5008834;28;20042;-66
2022/03/17 03:13:02;;;;;;;65.32;42.10;;;9.80;99.90;;;;;;5005293;28;20045;-66
2022/03/17 03:15:29;;;;;;;71.05;44.45;;;9.80;99.90;;;;;;5008986;28;20042;-66
2022/03/17 03:17:55;;;;;;;72.55;42.47;;;9.80;99.90;;;;;;5008348;28;20574;-66
2022/03/17 03:20:21;;;;;;;70.18;43.10;;;9.80;99.90;;;;;;5005748;28;20042;-66
2022/03/17 03:22:47;;;;;;;75.47;43.67;;;9.80;99.90;;;;;;4997731;28;20037;-66
2022/03/17 03:25:13;;;;;;;76.25;44.10;;;9.80;99.90;;;;;;5007672;28;20499;-66
2022/03/17 03:27:40;;;;;;;78.03;43.53;;;9.90;99.90;;;;;;5005822;28;20092;-66
2022/03/17 03:30:07;;;;;;;74.60;45.47;;;9.90;99.90;;;;;;5007997;28;20072;-66
2022/03/17 03:32:34;;;;;;;74.38;45.05;;;9.90;99.90;;;;;;5005653;28;20125;-66
2022/03/17 03:37:22;;;;;;;77.65;44.38;;;9.90;99.90;;;;;;5003931;28;20491;-66
2022/03/17 03:37:45;;;;;;;73.75;45.45;;;9.90;99.90;;;;;;5015551;28;20046;-66
2022/03/17 03:40:11;;;;;;;67.25;42.10;;;10.00;99.90;;;;;;5012354;28;20523;-66
2022/03/17 03:42:36;;;;;;;66.68;41.05;;;9.90;99.90;;;;;;5019667;28;20577;-65
2022/03/17 03:45:02;;;;;;;67.90;42.13;;;9.90;99.90;;;;;;5003812;28;20069;-66
2022/03/17 03:47:28;;;;;;;86.47;44.75;;;9.90;99.90;;;;;;5012207;28;20104;-66
2022/03/17 03:49:54;;;;;;;72.55;47.03;;;10.00;99.90;;;;;;5020708;28;20225;-66
2022/03/17 03:52:20;;;;;;;71.05;42.17;;;10.00;99.90;;;;;;5017862;28;20507;-66
2022/03/17 03:54:45;;;;;;;63.78;43.22;;;10.00;99.90;;;;;;5016549;28;20041;-66
2022/03/17 03:57:11;;;;;;;69.40;45.10;;;10.00;99.90;;;;;;5005289;28;20133;-66
2022/03/17 03:59:38;;;;;;;80.95;47.80;;;10.00;99.90;;;;;;5014968;28;20041;-66
2022/03/17 04:02:07;;;;;;;76.28;44.55;;;10.00;99.90;;;;;;5003324;28;20072;-66
2022/03/17 04:04:34;;;;;;;72.43;43.78;;;10.00;99.90;;;;;;5010498;28;20073;-66
2022/03/17 04:07:05;;;;;;;72.38;42.40;;;10.10;99.90;;;;;;5008337;28;20041;-66
2022/03/17 04:09:38;;;;;;;74.78;44.35;;;10.00;99.90;;;;;;5010500;28;20077;-66
2022/03/17 04:12:05;;;;;;;75.32;42.90;;;10.00;99.90;;;;;;5003258;28;20041;-66
2022/03/17 04:14:31;;;;;;;77.65;46.00;;;10.00;99.90;;;;;;5010206;28;20229;-66
2022/03/17 04:16:57;;;;;;;71.95;42.80;;;10.10;99.90;;;;;;5010509;28;20045;-66
2022/03/17 04:19:24;;;;;;;75.97;43.45;;;10.10;99.90;;;;;;5016644;28;20064;-66
2022/03/17 04:21:49;;;;;;;72.63;46.47;;;10.00;99.90;;;;;;5010488;28;20034;-66
2022/03/17 04:24:16;;;;;;;70.85;45.50;;;10.10;99.90;;;;;;5006646;28;20038;-66
2022/03/17 04:26:43;;;;;;;80.80;46.80;;;10.10;99.90;;;;;;5008175;28;20050;-66
2022/03/17 04:29:10;;;;;;;70.93;44.10;;;10.10;99.90;;;;;;5007054;28;20081;-66
2022/03/17 04:31:37;;;;;;;73.03;44.85;;;10.10;99.90;;;;;;5009791;28;20038;-66
2022/03/17 04:34:02;;;;;;;67.25;43.05;;;10.10;99.90;;;;;;5010817;28;20046;-66
2022/03/17 04:36:29;;;;;;;77.82;45.75;;;10.10;99.90;;;;;;5008777;28;20049;-66
2022/03/17 04:38:55;;;;;;;74.07;48.30;;;10.20;99.90;;;;;;4989994;28;20037;-66
2022/03/17 04:41:21;;;;;;;71.80;43.40;;;10.20;99.90;;;;;;5005500;28;20041;-66
2022/03/17 04:43:46;;;;;;;74.22;45.40;;;10.20;99.90;;;;;;5009139;28;20144;-67
2022/03/17 04:46:12;;;;;;;80.18;49.80;;;10.10;99.90;;;;;;5006474;28;20168;-67
2022/03/17 04:48:38;;;;;;;87.38;50.58;;;10.20;99.90;;;;;;5000887;28;20038;-66
2022/03/17 04:51:05;;;;;;;73.90;47.40;;;10.10;99.90;;;;;;5002321;28;20041;-67
2022/03/17 04:53:32;;;;;;;87.18;50.70;;;10.10;99.90;;;;;;5010743;28;20076;-67
2022/03/17 04:56:00;;;;;;;84.65;52.78;;;10.00;99.90;;;;;;5010217;28;20052;-67
2022/03/17 04:58:28;;;;;;;84.03;52.65;;;10.00;99.90;;;;;;5007696;28;20503;-66
2022/03/17 05:00:55;;;;;;;93.53;55.20;;;9.90;99.90;;;;;;5002021;28;20053;-66
2022/03/17 05:03:21;;;;;;;88.00;56.47;;;9.90;99.90;;;;;;5009110;28;20108;-65
2022/03/17 05:05:48;;;;;;;99.47;61.15;;;9.80;99.90;;;;;;5006732;28;20519;-66
2022/03/17 05:08:14;;;;;;;98.40;58.95;;;9.70;99.90;;;;;;5009983;28;20453;-66
2022/03/17 05:10:41;;;;;;;105.50;64.50;;;9.70;99.90;;;;;;5004327;28;20128;-66
2022/03/17 05:13:08;;;;;;;106.45;63.72;;;9.70;99.90;;;;;;5005497;28;20500;-66
2022/03/17 05:15:35;;;;;;;108.65;65.97;;;9.60;99.90;;;;;;5009923;28;20056;-66
2022/03/17 05:18:02;;;;;;;111.72;67.30;;;9.50;99.90;;;;;;5015924;28;20057;-66
2022/03/17 05:20:40;;;;;;;103.50;65.47;;;9.50;99.90;;;;;;5005433;28;20474;-66
2022/03/17 05:23:13;;;;;;;;;;;9.50;99.90;;;;;;5003239;28;20449;-66
2022/03/17 05:25:39;;;;;;;103.65;64.68;;;9.50;99.90;;;;;;5010606;28;20004;-66
2022/03/17 05:28:10;;;;;;;117.95;65.35;;;9.40;99.90;;;;;;5001082;28;20034;-66
2022/03/17 05:30:37;;;;;;;128.23;72.95;;;9.50;99.90;;;;;;5001337;28;20054;-66
2022/03/17 05:33:04;;;;;;;119.60;69.55;;;9.40;99.90;;;;;;5005545;28;20050;-66
2022/03/17 05:35:30;;;;;;;118.13;68.47;;;9.50;99.90;;;;;;5002866;28;20038;-66
2022/03/17 05:37:56;;;;;;;133.23;74.43;;;9.40;99.90;;;;;;5007154;28;20529;-66
2022/03/17 05:40:23;;;;;;;113.90;65.90;;;9.40;99.90;;;;;;5009436;28;20038;-66
2022/03/17 05:42:57;;;;;;;118.00;62.85;;;9.40;99.90;;;;;;5005306;28;20041;-65
2022/03/17 05:45:27;;;;;;;70.80;39.97;;;9.40;99.90;;;;;;5010245;28;20104;-66
2022/03/17 05:47:57;;;;;;;35.88;24.30;;;9.40;99.90;;;;;;5008249;28;20103;-65
2022/03/17 05:50:28;;;;;;;31.80;20.10;;;9.30;99.90;;;;;;5008160;28;20490;-66
2022/03/17 05:52:54;;;;;;;27.25;18.10;;;9.20;99.90;;;;;;5006521;28;20104;-66
2022/03/17 05:55:23;;;;;;;27.35;17.88;;;9.10;99.90;;;;;;5008541;28;20124;-66
2022/03/17 05:57:50;;;;;;;28.80;18.58;;;9.00;99.90;;;;;;5007450;28;20488;-66
2022/03/17 06:00:21;;;;;;;27.33;18.98;;;9.00;99.90;;;;;;5004661;28;20060;-66
2022/03/17 06:02:47;;;;;;;19.80;15.88;;;8.90;99.90;;;;;;5002835;28;20054;-66
2022/03/17 06:05:13;;;;;;;21.65;17.60;;;8.90;99.90;;;;;;5009573;28;20050;-66
2022/03/17 06:07:40;;;;;;;20.80;16.65;;;8.80;99.90;;;;;;5004492;28;20534;-66
2022/03/17 06:10:10;;;;;;;21.38;16.00;;;8.80;99.90;;;;;;5008261;28;20422;-66
2022/03/17 06:12:37;;;;;;;21.65;16.80;;;8.70;99.90;;;;;;5009338;28;20072;-66
2022/03/17 06:15:04;;;;;;;23.92;17.52;;;8.70;99.90;;;;;;5015080;28;20125;-66
2022/03/17 06:17:49;;;;;;;28.58;18.27;;;8.60;99.90;;;;;;5013901;28;20048;-66
2022/03/17 06:20:23;;;;;;;24.20;18.83;;;8.60;99.90;;;;;;5002583;28;20050;-66
2022/03/17 06:22:52;;;;;;;31.13;17.77;;;8.50;99.90;;;;;;5013206;28;20499;-66
2022/03/17 06:25:20;;;;;;;27.17;20.63;;;8.50;99.90;;;;;;5009247;28;20060;-66
2022/03/17 06:27:47;;;;;;;33.33;20.85;;;8.50;99.90;;;;;;5014031;28;20061;-66
2022/03/17 06:30:24;;;;;;;26.42;19.73;;;8.40;99.90;;;;;;5008937;28;20088;-66
2022/03/17 06:32:51;;;;;;;30.88;20.92;;;8.50;99.90;;;;;;5006795;28;20505;-66
2022/03/17 06:35:19;;;;;;;33.78;21.35;;;8.40;99.90;;;;;;5005946;28;20096;-66
2022/03/17 06:37:48;;;;;;;34.58;21.92;;;8.40;99.90;;;;;;5008612;28;20046;-66
2022/03/17 06:40:14;;;;;;;;;;;8.40;99.90;;;;;;5000969;28;20053;-66
2022/03/17 06:42:40;;;;;;;34.53;20.08;;;8.40;99.90;;;;;;5000002;28;20386;-66
2022/03/17 06:45:07;;;;;;;36.92;22.35;;;8.30;99.90;;;;;;4996922;28;20060;-66
2022/03/17 06:47:32;;;;;;;35.63;22.25;;;8.30;99.90;;;;;;5008880;28;20492;-66
2022/03/17 06:49:58;;;;;;;28.58;18.63;;;8.30;99.90;;;;;;5008236;28;20050;-66
2022/03/17 06:52:24;;;;;;;31.88;18.42;;;8.30;99.90;;;;;;5008878;28;20044;-66
2022/03/17 06:54:50;;;;;;;35.13;18.80;;;8.20;99.90;;;;;;5004474;28;20038;-66
2022/03/17 06:57:23;;;;;;;41.88;22.17;;;8.20;99.90;;;;;;5007359;28;20423;-66
2022/03/17 06:59:49;;;;;;;35.60;20.40;;;8.20;99.90;;;;;;4998798;28;20049;-66
2022/03/17 07:02:16;;;;;;;46.75;19.92;;;8.20;99.90;;;;;;5006238;28;20535;-65
2022/03/17 07:04:43;;;;;;;36.42;20.60;;;8.20;99.90;;;;;;5007585;28;20049;-66
2022/03/17 07:07:08;;;;;;;29.50;16.40;;;8.20;99.90;;;;;;5008599;28;20052;-66
2022/03/17 07:09:36;;;;;;;37.92;17.77;;;8.20;99.90;;;;;;5003885;28;20405;-66
2022/03/17 07:12:03;;;;;;;24.67;16.50;;;8.20;99.90;;;;;;5009828;28;20049;-66
2022/03/17 07:14:28;;;;;;;27.25;15.35;;;8.20;99.90;;;;;;5004204;28;20038;-66
2022/03/17 07:16:54;;;;;;;24.48;15.23;;;8.10;99.90;;;;;;5012612;28;20050;-66
2022/03/17 07:19:20;;;;;;;30.60;15.43;;;8.10;99.90;;;;;;5013476;28;20073;-66
2022/03/17 07:21:46;;;;;;;23.48;15.65;;;8.10;99.90;;;;;;5010028;28;20552;-66
2022/03/17 07:24:11;;;;;;;32.72;14.18;;;8.10;99.90;;;;;;5008650;28;20038;-66
2022/03/17 07:26:39;;;;;;;28.08;12.52;;;8.00;99.90;;;;;;5010381;28;20038;-66
2022/03/17 07:29:05;;;;;;;25.97;11.83;;;8.00;99.90;;;;;;5011454;28;20100;-66
2022/03/17 07:31:31;;;;;;;15.73;9.68;;;8.00;99.90;;;;;;5009589;28;20304;-66
2022/03/17 07:33:57;;;;;;;29.80;10.98;;;8.00;99.90;;;;;;5007124;28;20614;-66
2022/03/17 07:36:22;;;;;;;20.83;9.93;;;8.00;99.90;;;;;;5008194;28;20045;-66
2022/03/17 07:38:48;;;;;;;21.67;10.35;;;8.00;99.90;;;;;;5010393;28;20495;-67
2022/03/17 07:41:15;;;;;;;25.80;9.48;;;8.00;99.90;;;;;;5010619;28;20052;-67
2022/03/17 07:43:43;;;;;;;18.45;9.50;;;8.00;99.90;;;;;;5008665;28;20050;-67
2022/03/17 07:46:10;;;;;;;18.50;10.18;;;8.00;99.90;;;;;;5005727;28;20503;-67
2022/03/17 07:48:36;;;;;;;24.00;8.52;;;8.00;99.90;;;;;;5004528;28;20418;-67
2022/03/17 07:51:02;;;;;;;20.90;7.97;;;8.00;99.90;;;;;;5004470;28;20041;-66
2022/03/17 07:53:29;;;;;;;24.17;8.63;;;8.00;99.90;;;;;;5004829;28;20073;-67
2022/03/17 07:55:56;;;;;;;17.95;8.07;;;8.00;99.90;;;;;;5004093;28;21209;-67
2022/03/17 07:58:24;;;;;;;18.70;7.53;;;8.00;99.90;;;;;;5004569;28;20121;-66
2022/03/17 08:00:54;;;;;;;19.05;7.78;;;8.00;99.90;;;;;;5002594;28;20128;-66
2022/03/17 08:03:20;;;;;;;15.30;6.63;;;8.00;99.90;;;;;;5004370;28;20037;-67
2022/03/17 08:05:46;;;;;;;9.90;5.32;;;8.00;99.90;;;;;;5003712;28;20057;-66
2022/03/17 08:08:15;;;;;;;11.10;5.25;;;8.00;99.90;;;;;;5004506;28;20046;-66
2022/03/17 08:10:43;;;;;;;15.55;6.15;;;8.00;99.90;;;;;;5003206;28;20065;-67
2022/03/17 08:13:10;;;;;;;13.85;4.38;;;8.00;99.90;;;;;;5004623;28;20038;-67
2022/03/17 08:15:36;;;;;;;21.17;4.22;;;7.90;99.90;;;;;;5004537;28;20458;-67
2022/03/17 08:18:06;;;;;;;9.10;3.67;;;7.90;99.90;;;;;;5003736;28;20050;-66
2022/03/17 08:20:35;;;;;;;14.25;3.50;;;8.00;99.90;;;;;;5004076;28;20045;-66
2022/03/17 08:23:01;;;;;;;14.80;3.90;;;7.90;99.90;;;;;;5002931;28;20042;-66
2022/03/17 08:25:27;;;;;;;16.60;4.07;;;7.90;99.90;;;;;;5004534;28;20046;-66
2022/03/17 08:27:54;;;;;;;22.25;4.15;;;8.00;99.90;;;;;;5004811;28;20034;-67
2022/03/17 08:30:21;;;;;;;19.77;3.70;;;7.90;99.90;;;;;;5004573;28;20491;-66
2022/03/17 08:32:46;;;;;;;22.38;5.15;;;7.90;99.90;;;;;;5004338;28;20501;-66
2022/03/17 08:35:14;;;;;;;11.57;3.97;;;7.90;99.90;;;;;;5004801;28;20042;-66
2022/03/17 08:37:44;;;;;;;23.92;4.43;;;7.90;99.90;;;;;;5006322;28;20441;-66
2022/03/17 08:40:11;;;;;;;12.80;4.10;;;7.90;99.90;;;;;;5004943;28;20072;-67
2022/03/17 08:42:39;;;;;;;20.67;3.53;;;7.90;99.90;;;;;;5005135;28;20765;-66
2022/03/17 08:49:18;;;;;;;23.80;4.90;;;7.90;99.90;;;;;;5005365;28;20301;-66
2022/03/17 08:50:41;;;;;;;24.98;4.15;;;7.90;99.90;;;;;;5004604;28;20045;-66
2022/03/17 08:53:07;;;;;;;16.48;3.90;;;7.90;99.90;;;;;;5005587;28;20049;-66
2022/03/17 08:55:34;;;;;;;18.05;4.57;;;7.90;99.90;;;;;;5005084;28;20057;-66
2022/03/17 08:58:00;;;;;;;23.20;5.63;;;7.90;99.90;;;;;;5004721;28;20503;-66
2022/03/17 09:00:26;;;;;;;17.30;4.28;;;7.90;99.90;;;;;;5004424;28;20069;-66
2022/03/17 09:02:53;;;;;;;23.15;4.85;;;7.90;99.90;;;;;;5004499;28;20918;-66
2022/03/17 09:05:21;;;;;;;24.92;5.13;;;7.90;99.90;;;;;;5004612;28;20050;-66
2022/03/17 09:07:47;;;;;;;29.45;6.07;;;7.90;99.90;;;;;;5005764;28;20129;-67
2022/03/17 09:10:13;;;;;;;27.55;5.80;;;8.00;99.90;;;;;;5005153;28;20627;-66
2022/03/17 09:12:38;;;;;;;26.23;4.90;;;8.00;99.90;;;;;;5004737;28;20141;-66
2022/03/17 09:15:05;;;;;;;22.55;4.90;;;7.90;99.90;;;;;;5004793;28;20030;-66
2022/03/17 09:17:31;;;;;;;21.95;4.82;;;7.90;99.90;;;;;;5001224;28;20119;-66
2022/03/17 09:19:57;;;;;;;18.13;4.82;;;7.90;99.90;;;;;;5003329;28;20057;-66
2022/03/17 09:22:23;;;;;;;15.43;4.63;;;7.90;99.90;;;;;;5003093;28;20116;-65
2022/03/17 09:24:48;;;;;;;19.58;4.90;;;7.90;99.90;;;;;;5002317;28;20507;-66
2022/03/17 09:27:17;;;;;;;28.92;4.88;;;7.90;99.90;;;;;;5001554;28;20137;-66
2022/03/17 09:29:45;;;;;;;15.38;4.45;;;7.90;99.90;;;;;;5001335;28;20045;-66
2022/03/17 09:32:10;;;;;;;21.13;4.82;;;8.00;99.90;;;;;;5002531;28;20165;-64
2022/03/17 09:34:36;;;;;;;23.80;5.95;;;7.90;99.90;;;;;;5001430;28;20107;-64
2022/03/17 09:37:02;;;;;;;18.60;4.80;;;7.90;99.90;;;;;;5003012;28;20060;-66
2022/03/17 09:39:45;;;;;;;23.58;5.65;;;8.00;99.90;;;;;;5002986;28;20046;-66
2022/03/17 09:42:15;;;;;;;31.52;5.32;;;8.10;99.90;;;;;;5003163;28;20049;-66
2022/03/17 09:44:47;;;;;;;19.73;5.40;;;8.20;99.90;;;;;;5002574;28;20050;-66
2022/03/17 09:47:18;;;;;;;24.52;5.00;;;8.20;99.90;;;;;;5002564;28;20108;-66
2022/03/17 09:49:48;;;;;;;23.75;4.38;;;8.20;99.90;;;;;;5002438;28;20053;-66
2022/03/17 09:52:17;;;;;;;20.17;5.05;;;8.20;99.90;;;;;;5002552;28;20392;-66
2022/03/17 09:54:45;;;;;;;23.00;5.25;;;8.20;99.90;;;;;;5002626;28;20042;-66
2022/03/17 09:57:11;;;;;;;22.77;5.55;;;8.20;99.90;;;;;;5003722;28;20042;-66
2022/03/17 09:59:37;;;;;;;14.20;4.05;;;8.30;99.90;;;;;;5003877;28;20060;-66
2022/03/17 10:02:03;;;;;;;19.75;5.45;;;8.30;99.90;;;;;;5003718;28;20041;-66
2022/03/17 10:04:35;;;;;;;19.30;4.45;;;8.40;99.90;;;;;;5003472;28;20701;-67
2022/03/17 10:07:01;;;;;;;15.70;4.40;;;8.50;99.90;;;;;;5003867;28;20141;-68
2022/03/17 10:09:30;;;;;;;17.13;4.85;;;8.60;99.90;;;;;;5003365;28;20084;-67
2022/03/17 10:12:01;;;;;;;23.92;5.45;;;8.70;99.90;;;;;;5003172;28;20034;-67
2022/03/17 10:14:40;;;;;;;18.60;4.53;;;8.70;99.90;;;;;;5003851;28;20045;-67
2022/03/17 10:17:28;;;;;;;12.40;3.13;;;8.70;99.90;;;;;;5003111;28;20056;-67
2022/03/17 10:20:15;;;;;;;21.92;4.95;;;8.70;99.90;;;;;;5003394;28;20408;-66
2022/03/17 10:22:50;;;;;;;29.42;4.50;;;8.70;99.90;;;;;;5003442;28;20050;-67
2022/03/17 10:25:24;;;;;;;18.35;3.33;;;8.80;99.90;;;;;;5008122;28;20068;-67
2022/03/17 10:27:50;;;;;;;16.60;3.95;;;8.80;99.90;;;;;;5004486;28;20046;-67
2022/03/17 10:30:32;;;;;;;13.10;4.25;;;8.90;99.90;;;;;;5007592;28;20073;-67
2022/03/17 10:33:15;;;;;;;34.20;5.07;;;9.00;99.90;;;;;;5004238;28;20081;-67
2022/03/17 10:35:49;;;;;;;22.27;4.57;;;9.10;99.90;;;;;;5007738;28;20451;-67
2022/03/17 10:38:22;;;;;;;30.13;5.30;;;9.30;99.90;;;;;;5001452;28;20057;-67
2022/03/17 10:41:10;;;;;;;21.80;4.72;;;9.60;99.90;;;;;;5007997;28;20041;-68
2022/03/17 10:43:38;;;;;;;33.20;5.55;;;9.80;99.90;;;;;;5009466;28;20116;-67
2022/03/17 10:46:07;;;;;;;14.33;4.07;;;10.00;99.90;;;;;;5005351;28;20526;-68
2022/03/17 10:48:34;;;;;;;18.13;4.18;;;10.20;99.90;;;;;;5010418;28;20062;-68
2022/03/17 10:51:00;;;;;;;16.30;4.25;;;10.30;99.90;;;;;;5007776;28;20046;-68
2022/03/17 10:53:30;;;;;;;15.43;4.70;;;10.60;99.90;;;;;;5000085;28;20092;-68
2022/03/17 10:56:12;;;;;;;15.63;4.15;;;10.80;99.90;;;;;;5010470;28;20053;-67
2022/03/17 10:58:46;;;;;;;11.45;4.05;;;11.00;99.90;;;;;;5006111;28;20785;-67
2022/03/17 11:01:11;;;;;;;20.35;4.07;;;11.20;99.90;;;;;;5005741;28;20077;-67
2022/03/17 11:03:38;;;;;;;16.75;4.70;;;11.40;99.90;;;;;;5012796;28;20193;-67
2022/03/17 11:06:06;;;;;;;16.95;4.03;;;11.60;99.90;;;;;;5007148;28;20053;-67
2022/03/17 11:08:33;;;;;;;11.70;3.70;;;11.70;99.90;;;;;;5008760;28;20045;-67
2022/03/17 11:10:59;;;;;;;17.95;4.25;;;11.70;99.90;;;;;;5010387;28;20074;-68
2022/03/17 11:13:26;;;;;;;20.50;4.60;;;11.70;99.90;;;;;;5003227;28;20069;-68
2022/03/17 11:16:04;;;;;;;13.48;4.47;;;11.60;99.90;;;;;;5011274;28;20046;-68
2022/03/17 11:18:37;;;;;;;15.98;4.68;;;11.80;99.90;;;;;;5008197;28;20048;-68
2022/03/17 11:21:19;;;;;;;14.38;3.83;;;11.90;99.90;;;;;;5011491;28;20042;-67
2022/03/17 11:24:06;;;;;;;15.23;4.50;;;11.90;99.90;;;;;;5009652;28;20049;-68
2022/03/17 11:26:40;;;;;;;18.07;4.93;;;11.80;99.90;;;;;;5004533;28;20096;-68
2022/03/17 11:29:05;;;;;;;12.75;3.40;;;11.70;99.90;;;;;;5006102;28;20170;-68
2022/03/17 11:31:52;;;;;;;15.25;3.90;;;11.70;99.90;;;;;;5005513;28;20174;-66
2022/03/17 11:34:41;;;;;;;12.07;3.88;;;11.80;99.90;;;;;;5005239;28;20054;-67
2022/03/17 11:37:25;;;;;;;13.75;3.60;;;11.80;99.90;;;;;;5008523;28;20167;-68
2022/03/17 11:40:04;;;;;;;22.02;4.68;;;11.70;99.90;;;;;;5013080;28;20088;-68
2022/03/17 11:42:42;;;;;;;37.72;5.55;;;11.60;99.90;;;;;;5019236;28;20056;-67
2022/03/17 11:45:11;;;;;;;17.10;5.07;;;11.70;99.90;;;;;;5005983;28;20058;-68
2022/03/17 11:47:37;;;;;;;16.40;4.07;;;11.70;99.90;;;;;;5003931;28;20085;-68
2022/03/17 11:50:31;;;;;;;15.48;4.25;;;11.70;99.90;;;;;;5008108;28;20130;-68
2022/03/17 11:52:59;;;;;;;15.95;5.10;;;11.90;99.90;;;;;;5007791;28;20046;-68
2022/03/17 11:55:33;;;;;;;19.65;4.97;;;11.90;99.90;;;;;;5005336;28;20034;-67
2022/03/17 11:58:23;;;;;;;18.73;5.03;;;12.00;99.90;;;;;;5020524;28;20050;-68
2022/03/17 12:01:13;;;;;;;26.02;4.97;;;12.10;99.90;;;;;;5008590;28;20049;-68
2022/03/17 12:03:43;;;;;;;18.40;4.20;;;12.20;99.90;;;;;;5011856;28;20041;-68
2022/03/17 12:06:14;;;;;;;13.30;3.90;;;12.20;99.90;;;;;;5008538;28;20053;-68
2022/03/17 12:08:48;;;;;;;24.27;4.20;;;12.20;99.90;;;;;;5010010;28;20112;-67
2022/03/17 12:11:16;;;;;;;15.57;4.15;;;12.30;99.90;;;;;;5015858;28;20442;-68
2022/03/17 12:13:43;;;;;;;17.35;3.78;;;12.10;99.90;;;;;;5013424;28;20088;-68
2022/03/17 12:16:13;;;;;;;20.52;4.32;;;12.20;99.90;;;;;;5017297;28;20050;-68
2022/03/17 12:19:01;;;;;;;13.75;3.53;;;12.30;99.90;;;;;;5011096;28;20054;-68
2022/03/17 12:22:05;;;;;;;16.42;4.38;;;12.40;99.90;;;;;;5009057;28;20137;-68
2022/03/17 12:24:40;;;;;;;30.55;5.18;;;12.40;99.90;;;;;;5006677;28;20116;-68
2022/03/17 12:27:05;;;;;;;16.27;4.60;;;12.20;99.90;;;;;;5013328;28;20142;-67
2022/03/17 12:29:32;;;;;;;17.58;4.40;;;12.00;99.90;;;;;;5022246;28;20041;-67
2022/03/17 12:32:17;;;;;;;13.90;4.18;;;12.00;99.90;;;;;;5017231;28;20042;-68
2022/03/17 12:34:48;;;;;;;17.05;4.75;;;12.10;99.90;;;;;;5016358;28;20403;-68
2022/03/17 12:37:15;;;;;;;17.48;5.40;;;12.20;99.90;;;;;;5016908;28;20167;-68
2022/03/17 12:39:41;;;;;;;17.55;4.82;;;12.30;99.90;;;;;;5013303;28;20057;-68
2022/03/17 12:42:19;;;;;;;13.85;4.95;;;12.40;99.90;;;;;;5011889;28;20123;-68
2022/03/17 12:44:53;;;;;;;15.07;4.40;;;12.60;99.90;;;;;;5006408;28;20059;-68
2022/03/17 12:47:20;;;;;;;10.10;4.47;;;12.60;99.90;;;;;;5012630;28;20061;-68
2022/03/17 12:49:48;;;;;;;15.27;5.10;;;12.70;99.90;;;;;;5003268;28;20052;-68
2022/03/17 12:52:20;;;;;;;18.53;6.37;;;12.80;99.90;;;;;;5008986;28;20097;-68
2022/03/17 12:54:49;;;;;;;14.13;4.97;;;12.90;99.90;;;;;;5011052;28;20041;-68